Time;durP1;ratioP1;P1;durP2;ratioP2;P2;SDS_P1;SDS_P2;PMS_P1;PMS_P2;Temp;Humidity;BMP_temperature;BMP_pressure;BME280_temperature;BME280_humidity;BME280_pressure;Samples;Min_cycle;Max_cycle;Signal;HPM_P1;HPM_P2
2023/05/04 00:00:58;;;;;;;3.63;1.00;;;20.30;78.00;;;;;;5073130;28;20207;-73
2023/05/04 00:03:25;;;;;;;4.50;1.20;;;20.30;79.10;;;;;;5073362;28;20179;-72
2023/05/04 00:05:53;;;;;;;2.73;1.10;;;20.60;81.30;;;;;;5073493;28;20263;-74
2023/05/04 00:08:20;;;;;;;2.33;1.00;;;20.90;82.70;;;;;;5070907;28;20180;-72
2023/05/04 00:10:47;;;;;;;3.50;1.00;;;20.80;76.20;;;;;;5073460;28;20179;-70
2023/05/04 00:13:15;;;;;;;5.43;1.00;;;20.70;78.80;;;;;;5073272;28;20172;-73
2023/05/04 00:15:42;;;;;;;4.00;1.20;;;21.10;79.50;;;;;;5072281;28;20365;-71
2023/05/04 00:18:10;;;;;;;4.17;1.33;;;21.30;75.60;;;;;;5077230;28;20254;-73
2023/05/04 00:20:37;;;;;;;3.97;0.90;;;21.30;77.60;;;;;;5073047;28;20198;-73
2023/05/04 00:23:05;;;;;;;3.53;1.10;;;21.50;73.40;;;;;;5072575;28;20203;-73
2023/05/04 00:25:32;;;;;;;2.07;0.80;;;21.30;72.00;;;;;;5072058;28;20247;-73
2023/05/04 00:28:00;;;;;;;3.47;1.00;;;22.00;78.10;;;;;;5071071;28;20641;-73
2023/05/04 00:30:27;;;;;;;3.00;0.80;;;23.00;75.00;;;;;;5072236;28;20179;-70
2023/05/04 00:32:54;;;;;;;3.40;0.87;;;23.00;65.90;;;;;;5072715;28;20191;-68
2023/05/04 00:35:22;;;;;;;5.53;0.83;;;22.80;64.40;;;;;;5072704;28;20185;-73
2023/05/04 00:37:49;;;;;;;1.10;0.60;;;22.30;72.00;;;;;;5071592;28;20180;-70
2023/05/04 00:40:17;;;;;;;5.30;0.70;;;22.70;68.40;;;;;;5072189;28;20266;-69
2023/05/04 00:42:44;;;;;;;2.50;1.10;;;22.60;64.20;;;;;;5071131;28;20179;-68
2023/05/04 00:45:12;;;;;;;5.13;0.97;;;22.60;63.70;;;;;;5072107;28;20251;-68
2023/05/04 00:47:40;;;;;;;2.80;0.80;;;22.50;71.80;;;;;;5072546;28;20186;-69
2023/05/04 00:50:08;;;;;;;5.87;1.00;;;22.60;68.40;;;;;;5071933;28;20179;-69
2023/05/04 00:52:36;;;;;;;1.47;0.63;;;22.70;66.70;;;;;;5071919;28;20270;-69
2023/05/04 00:55:03;;;;;;;9.67;1.00;;;22.70;66.30;;;;;;5072454;28;20537;-70
2023/05/04 00:57:31;;;;;;;2.67;1.03;;;23.20;64.00;;;;;;5072223;28;20245;-68
2023/05/04 00:59:58;;;;;;;2.30;1.00;;;23.10;71.30;;;;;;5071849;28;20252;-69
2023/05/04 01:02:26;;;;;;;2.50;1.03;;;23.30;64.80;;;;;;5072320;28;20199;-69
2023/05/04 01:04:53;;;;;;;3.90;1.17;;;24.30;69.20;;;;;;5072181;28;20256;-68
2023/05/04 01:07:51;;;;;;;2.87;0.70;;;24.60;55.60;;;;;;5071898;28;20585;-69
2023/05/04 01:10:55;;;;;;;2.63;0.60;;;24.70;59.20;;;;;;5072156;28;20259;-69
2023/05/04 01:13:24;;;;;;;4.77;0.90;;;25.20;57.80;;;;;;5071851;28;20187;-68
2023/05/04 01:15:51;;;;;;;4.33;0.83;;;25.60;54.00;;;;;;5071118;28;20274;-69
2023/05/04 01:18:19;;;;;;;1.50;0.60;;;25.20;51.60;;;;;;5072123;28;20202;-68
2023/05/04 01:20:46;;;;;;;1.70;0.60;;;24.40;51.00;;;;;;5071892;28;20268;-68
2023/05/04 01:23:14;;;;;;;2.37;0.70;;;24.00;50.90;;;;;;5071344;28;20180;-68
2023/05/04 01:25:57;;;;;;;1.60;0.80;;;23.90;55.90;;;;;;5071935;28;20641;-69
2023/05/04 01:28:49;;;;;;;3.33;0.57;;;23.70;52.70;;;;;;5071817;28;20179;-69
2023/05/04 01:31:22;;;;;;;2.10;0.90;;;23.60;57.30;;;;;;5071307;28;20182;-69
2023/05/04 01:33:53;;;;;;;2.00;0.70;;;24.60;59.50;;;;;;5071292;28;20653;-69
2023/05/04 01:36:22;;;;;;;1.80;0.63;;;25.00;52.60;;;;;;5071771;28;20236;-69
2023/05/04 01:38:53;;;;;;;1.60;0.80;;;25.70;54.30;;;;;;5071316;28;20279;-70
2023/05/04 01:41:20;;;;;;;2.87;0.60;;;25.40;47.30;;;;;;5071649;28;20307;-68
2023/05/04 01:43:48;;;;;;;1.83;0.73;;;25.10;45.80;;;;;;5071781;28;20191;-69
2023/05/04 01:46:15;;;;;;;2.03;0.60;;;24.60;47.50;;;;;;5069971;28;20274;-69
2023/05/04 01:48:43;;;;;;;3.13;0.80;;;24.80;49.40;;;;;;5071668;28;20183;-69
2023/05/04 01:51:10;;;;;;;4.10;0.83;;;25.10;49.10;;;;;;5071049;28;20191;-70
2023/05/04 01:53:37;;;;;;;2.13;0.60;;;25.00;46.00;;;;;;5071275;28;20184;-69
2023/05/04 01:56:05;;;;;;;1.87;0.60;;;24.60;48.60;;;;;;5071664;28;20172;-70
2023/05/04 01:58:33;;;;;;;2.87;0.90;;;24.60;48.30;;;;;;5071706;28;20856;-70
2023/05/04 02:01:00;;;;;;;3.13;0.80;;;25.20;52.20;;;;;;5071120;28;20222;-69
2023/05/04 02:03:28;;;;;;;1.10;0.57;;;25.60;49.90;;;;;;5071529;28;20196;-69
2023/05/04 02:05:55;;;;;;;2.60;0.70;;;25.60;49.20;;;;;;5071216;28;20180;-68
2023/05/04 02:11:44;;;;;;;1.07;0.50;;;25.70;45.10;;;;;;5050958;28;20222;-70
2023/05/04 02:14:12;;;;;;;1.20;0.60;;;24.80;46.80;;;;;;5064977;28;20189;-69
2023/05/04 02:16:39;;;;;;;2.70;0.63;;;24.80;46.90;;;;;;5071263;28;20230;-70
2023/05/04 02:19:07;;;;;;;1.70;0.63;;;25.10;48.60;;;;;;5071457;28;20205;-69
2023/05/04 02:21:34;;;;;;;2.73;0.50;;;25.50;48.40;;;;;;5070797;28;20967;-69
2023/05/04 02:24:05;;;;;;;1.83;0.50;;;25.80;48.70;;;;;;5071117;28;20191;-69
2023/05/04 02:26:32;;;;;;;1.27;0.57;;;26.40;47.70;;;;;;5071405;28;20187;-70
2023/05/04 02:29:01;;;;;;;3.97;0.90;;;25.70;41.40;;;;;;5070733;28;20261;-69
2023/05/04 02:31:29;;;;;;;2.10;0.60;;;25.70;44.80;;;;;;5071374;28;20318;-69
2023/05/04 02:33:57;;;;;;;0.67;0.50;;;25.60;45.80;;;;;;5071276;28;20714;-69
2023/05/04 02:36:24;;;;;;;1.03;0.50;;;25.40;46.20;;;;;;5069570;28;20198;-70
2023/05/04 02:38:53;;;;;;;2.97;0.80;;;25.60;46.80;;;;;;5071313;28;20650;-69
2023/05/04 02:41:21;;;;;;;1.67;0.50;;;26.00;44.90;;;;;;5071219;28;20227;-69
2023/05/04 02:43:48;;;;;;;1.43;0.80;;;25.90;44.40;;;;;;5070961;28;20172;-70
2023/05/04 02:46:15;;;;;;;1.70;0.60;;;25.80;43.80;;;;;;5071154;28;20625;-70
2023/05/04 02:48:43;;;;;;;4.47;0.80;;;25.50;43.60;;;;;;5078387;28;20231;-70
2023/05/04 02:51:10;;;;;;;2.33;0.90;;;25.60;43.50;;;;;;5077301;28;20184;-69
2023/05/04 02:53:38;;;;;;;3.63;0.73;;;24.90;46.60;;;;;;5075309;28;20168;-69
2023/05/04 02:56:05;;;;;;;2.33;0.70;;;25.10;47.70;;;;;;5074685;28;20253;-68
2023/05/04 02:58:33;;;;;;;3.43;0.97;;;25.70;49.70;;;;;;5074257;28;20172;-69
2023/05/04 03:01:01;;;;;;;2.13;0.50;;;26.20;43.70;;;;;;5074645;28;20285;-69
2023/05/04 03:03:28;;;;;;;1.37;0.50;;;26.60;46.80;;;;;;5074625;28;20207;-71
2023/05/04 03:05:55;;;;;;;2.93;0.60;;;26.50;44.50;;;;;;5074026;28;20188;-69
2023/05/04 03:08:23;;;;;;;2.40;0.83;;;26.10;43.30;;;;;;5074634;28;20652;-69
2023/05/04 03:10:50;;;;;;;1.67;0.60;;;25.60;45.90;;;;;;5074344;28;20168;-69
2023/05/04 03:13:18;;;;;;;1.73;0.70;;;25.90;49.00;;;;;;5073968;28;20168;-69
2023/05/04 03:21:16;;;;;;;3.53;0.53;;;26.80;45.30;;;;;;5071686;28;20239;-69
2023/05/04 03:23:44;;;;;;;1.67;0.70;;;26.80;42.10;;;;;;5074345;28;20632;-69
2023/05/04 03:26:11;;;;;;;4.23;0.60;;;26.80;44.50;;;;;;5073455;28;20537;-69
2023/05/04 03:28:38;;;;;;;3.87;0.80;;;27.20;44.00;;;;;;5072605;28;20179;-69
2023/05/04 03:31:06;;;;;;;1.47;0.60;;;27.10;41.30;;;;;;5074114;28;20172;-68
2023/05/04 03:33:33;;;;;;;1.70;0.60;;;26.80;39.20;;;;;;5073862;28;20698;-69
2023/05/04 03:36:01;;;;;;;1.77;0.60;;;26.20;41.00;;;;;;5073600;28;20172;-67
2023/05/04 03:38:28;;;;;;;4.87;0.87;;;26.40;41.60;;;;;;5073545;28;20266;-68
2023/05/04 03:40:55;;;;;;;2.90;0.60;;;26.60;41.10;;;;;;5073455;28;20218;-68
2023/05/04 03:43:23;;;;;;;2.60;0.60;;;26.60;41.50;;;;;;5073170;28;20175;-69
2023/05/04 03:45:50;;;;;;;3.00;0.67;;;26.70;42.40;;;;;;5073622;28;20231;-68
2023/05/04 03:48:18;;;;;;;2.13;0.60;;;26.30;39.50;;;;;;5073515;28;20180;-68
2023/05/04 03:50:45;;;;;;;2.53;0.80;;;25.40;41.20;;;;;;5073108;28;20275;-68
2023/05/04 03:53:13;;;;;;;1.17;0.53;;;25.20;44.10;;;;;;5073638;28;20179;-70
2023/05/04 03:55:40;;;;;;;1.23;0.60;;;25.70;43.60;;;;;;5073333;28;20660;-69
2023/05/04 03:58:07;;;;;;;3.37;0.80;;;26.10;44.10;;;;;;5072975;28;20187;-68
2023/05/04 04:00:35;;;;;;;4.33;0.80;;;25.80;48.10;;;;;;5071949;28;20688;-69
2023/05/04 04:03:02;;;;;;;2.07;0.70;;;26.30;44.20;;;;;;5073678;28;20176;-69
2023/05/04 04:05:30;;;;;;;1.87;0.70;;;26.60;45.90;;;;;;5072919;28;20172;-68
2023/05/04 04:07:57;;;;;;;2.20;0.60;;;27.10;42.60;;;;;;5073013;28;20653;-68
2023/05/04 04:10:24;;;;;;;2.03;0.70;;;26.10;42.20;;;;;;5073312;28;20207;-69
2023/05/04 04:12:52;;;;;;;2.10;0.83;;;25.80;44.10;;;;;;5073219;28;20175;-67
2023/05/04 04:15:19;;;;;;;3.33;0.60;;;25.10;44.20;;;;;;5073054;28;20271;-70
2023/05/04 04:17:46;;;;;;;2.03;0.53;;;24.90;47.20;;;;;;5073009;28;20243;-69
2023/05/04 04:20:14;;;;;;;1.57;0.40;;;25.30;50.60;;;;;;5072150;28;20338;-69
2023/05/04 04:22:42;;;;;;;3.37;0.63;;;26.00;51.10;;;;;;5073199;28;20180;-69
2023/05/04 04:25:09;;;;;;;3.27;0.67;;;26.20;45.10;;;;;;5073032;28;20204;-69
2023/05/04 04:27:41;;;;;;;2.40;0.73;;;26.20;43.00;;;;;;5072013;28;20215;-69
2023/05/04 04:30:12;;;;;;;1.33;0.53;;;26.00;43.90;;;;;;5072592;28;20190;-69
2023/05/04 04:36:01;;;;;;;3.07;0.60;;;24.40;49.60;;;;;;5062635;28;20202;-68
2023/05/04 04:38:29;;;;;;;2.33;0.67;;;24.30;52.40;;;;;;5072570;28;20199;-68
2023/05/04 04:40:56;;;;;;;2.77;1.00;;;24.40;53.40;;;;;;5072109;28;20223;-68
2023/05/04 04:43:27;;;;;;;15.60;9.40;;;24.20;53.50;;;;;;5071886;28;20192;-68
2023/05/04 04:45:54;;;;;;;3.00;1.37;;;23.70;51.80;;;;;;5072508;28;20211;-67
2023/05/04 04:48:24;;;;;;;4.37;2.17;;;23.30;53.10;;;;;;5072317;28;20183;-68
2023/05/04 04:50:51;;;;;;;2.17;1.60;;;23.00;55.00;;;;;;5071957;28;20211;-69
2023/05/04 04:53:19;;;;;;;3.17;0.80;;;22.60;62.20;;;;;;5071338;28;20183;-69
2023/05/04 04:55:46;;;;;;;1.97;0.77;;;22.40;67.00;;;;;;5072265;28;20172;-68
2023/05/04 04:58:14;;;;;;;1.50;0.73;;;22.40;64.00;;;;;;5071797;28;20188;-69
2023/05/04 05:00:41;;;;;;;2.53;1.07;;;22.30;70.80;;;;;;5071829;28;20211;-68
2023/05/04 05:03:09;;;;;;;4.70;1.10;;;22.10;68.70;;;;;;5072365;28;20184;-69
2023/05/04 05:05:36;;;;;;;4.03;0.83;;;21.90;74.40;;;;;;5071479;28;20268;-68
2023/05/04 05:11:26;;;;;;;4.83;0.63;;;21.60;81.10;;;;;;5059767;28;20261;-68
2023/05/04 05:13:53;;;;;;;3.00;0.90;;;21.50;85.30;;;;;;5072055;28;20185;-70
2023/05/04 05:16:20;;;;;;;1.70;0.70;;;21.30;86.70;;;;;;5071998;28;20184;-69
2023/05/04 05:18:47;;;;;;;1.93;0.70;;;21.30;85.20;;;;;;5071606;28;20207;-69
2023/05/04 05:21:16;;;;;;;4.87;0.80;;;21.60;87.90;;;;;;5071313;28;20235;-68
2023/05/04 05:23:43;;;;;;;6.20;0.97;;;21.90;90.10;;;;;;5071947;28;20188;-68
2023/05/04 05:26:10;;;;;;;0.87;0.50;;;22.10;83.00;;;;;;5071256;28;20241;-70
2023/05/04 05:28:38;;;;;;;4.80;1.10;;;22.10;86.30;;;;;;5072000;28;20178;-70
2023/05/04 05:31:05;;;;;;;4.40;0.80;;;22.10;89.00;;;;;;5071476;28;20203;-70
2023/05/04 05:33:33;;;;;;;2.33;0.80;;;21.90;92.00;;;;;;5071119;28;20253;-69
2023/05/04 05:36:00;;;;;;;3.10;0.87;;;21.80;92.40;;;;;;5070555;28;20180;-69
2023/05/04 05:38:27;;;;;;;1.50;0.90;;;21.70;93.20;;;;;;5071729;28;20254;-69
2023/05/04 05:40:55;;;;;;;6.70;1.27;;;21.80;92.70;;;;;;5071320;28;20215;-69
2023/05/04 05:43:23;;;;;;;4.27;0.80;;;21.90;94.10;;;;;;5071268;28;20196;-69
2023/05/04 05:45:50;;;;;;;3.53;0.80;;;22.00;92.60;;;;;;5071319;28;20183;-70
2023/05/04 05:48:17;;;;;;;2.80;0.80;;;22.00;94.90;;;;;;5071122;28;20184;-69
2023/05/04 05:50:45;;;;;;;3.90;0.80;;;21.90;93.90;;;;;;5071613;28;20241;-70
2023/05/04 05:53:12;;;;;;;4.00;0.70;;;21.90;95.80;;;;;;5071328;28;20187;-69
2023/05/04 05:55:40;;;;;;;1.50;0.67;;;21.70;95.00;;;;;;5071097;28;20180;-69
2023/05/04 05:58:07;;;;;;;1.93;0.50;;;21.60;95.70;;;;;;5071146;28;20175;-70
2023/05/04 06:00:34;;;;;;;2.67;0.87;;;21.40;97.00;;;;;;5071157;28;20219;-69
2023/05/04 06:03:02;;;;;;;2.40;0.80;;;21.00;99.10;;;;;;5070631;28;20210;-68
2023/05/04 06:05:29;;;;;;;2.93;0.80;;;20.70;99.90;;;;;;5071170;28;20270;-68
2023/05/04 06:07:56;;;;;;;2.23;0.60;;;20.50;99.90;;;;;;5071041;28;20175;-70
2023/05/04 06:10:24;;;;;;;3.23;0.77;;;20.40;99.90;;;;;;5070722;28;20168;-69
2023/05/04 06:12:51;;;;;;;3.40;0.93;;;20.20;99.90;;;;;;5070856;28;20608;-70
2023/05/04 06:15:19;;;;;;;2.83;0.90;;;20.10;99.90;;;;;;5071502;28;20201;-70
2023/05/04 06:17:48;;;;;;;1.77;0.97;;;20.10;99.90;;;;;;5070909;28;20266;-68
2023/05/04 06:20:17;;;;;;;3.17;0.77;;;20.00;99.90;;;;;;5071172;28;20223;-68
2023/05/04 06:22:44;;;;;;;3.10;0.93;;;20.00;99.90;;;;;;5071391;28;20186;-69
2023/05/04 06:25:12;;;;;;;4.17;0.80;;;20.00;99.90;;;;;;5074948;28;20196;-69
2023/05/04 06:27:40;;;;;;;6.83;0.80;;;20.00;99.90;;;;;;5075459;28;20233;-71
2023/05/04 06:30:08;;;;;;;2.00;0.70;;;19.70;99.90;;;;;;5074986;28;20625;-68
2023/05/04 06:32:36;;;;;;;2.13;0.57;;;19.60;99.90;;;;;;5074379;28;20202;-69
2023/05/04 06:35:04;;;;;;;1.77;0.80;;;19.50;99.90;;;;;;5074566;28;20195;-68
2023/05/04 06:37:32;;;;;;;5.53;0.80;;;19.40;99.90;;;;;;5073937;28;20181;-68
2023/05/04 06:40:00;;;;;;;3.97;0.90;;;19.40;99.90;;;;;;5074402;28;20174;-68
2023/05/04 06:42:30;;;;;;;3.30;0.80;;;19.30;99.90;;;;;;5075001;28;20343;-69
2023/05/04 06:44:58;;;;;;;2.40;1.33;;;19.30;99.90;;;;;;5074952;28;20662;-69
2023/05/04 06:47:26;;;;;;;1.07;0.57;;;19.10;99.90;;;;;;5074514;28;20182;-70
2023/05/04 06:49:54;;;;;;;2.80;0.90;;;19.00;99.90;;;;;;5074779;28;20176;-68
2023/05/04 06:52:21;;;;;;;1.87;1.00;;;18.80;99.90;;;;;;5075150;28;20179;-68
2023/05/04 06:54:49;;;;;;;5.93;1.47;;;18.70;99.90;;;;;;5074237;28;20225;-69
2023/05/04 06:57:17;;;;;;;4.50;0.93;;;18.60;99.90;;;;;;5074757;28;20633;-68
2023/05/04 06:59:45;;;;;;;8.87;1.10;;;18.60;99.90;;;;;;5074832;28;20168;-69
2023/05/04 07:02:12;;;;;;;3.00;1.20;;;18.50;99.90;;;;;;5073976;28;20219;-70
2023/05/04 07:04:40;;;;;;;1.83;0.80;;;18.40;99.90;;;;;;5074618;28;20191;-68
2023/05/04 07:07:08;;;;;;;4.03;0.80;;;18.30;99.90;;;;;;5074194;28;20218;-69
2023/05/04 07:09:35;;;;;;;4.60;1.27;;;18.30;99.90;;;;;;5073657;28;20177;-68
2023/05/04 07:12:04;;;;;;;1.47;0.83;;;18.20;99.90;;;;;;5074448;28;20176;-66
2023/05/04 07:14:31;;;;;;;3.77;1.10;;;18.10;99.90;;;;;;5073201;28;20173;-69
2023/05/04 07:17:00;;;;;;;2.63;0.90;;;18.00;99.90;;;;;;5072637;28;20192;-69
2023/05/04 07:19:28;;;;;;;4.93;1.20;;;18.00;99.90;;;;;;5073594;28;20183;-69
2023/05/04 07:21:56;;;;;;;4.50;1.00;;;17.90;99.90;;;;;;5074085;28;20238;-69
2023/05/04 07:24:24;;;;;;;3.97;1.27;;;17.70;99.90;;;;;;5073402;28;20256;-70
2023/05/04 07:26:51;;;;;;;1.77;0.80;;;17.60;99.90;;;;;;5074072;28;20185;-68
2023/05/04 07:29:19;;;;;;;1.63;0.80;;;17.50;99.90;;;;;;5074098;28;20172;-69
2023/05/04 07:31:47;;;;;;;3.20;1.13;;;17.40;99.90;;;;;;5073536;28;20237;-69
2023/05/04 07:34:15;;;;;;;4.00;1.10;;;17.30;99.90;;;;;;5073351;28;20195;-69
2023/05/04 07:36:42;;;;;;;5.10;1.10;;;17.20;99.90;;;;;;5073987;28;20176;-69
2023/05/04 07:39:11;;;;;;;3.33;1.00;;;17.20;99.90;;;;;;5073069;28;20274;-70
2023/05/04 07:41:39;;;;;;;3.50;1.10;;;17.10;99.90;;;;;;5070938;28;20207;-68
2023/05/04 07:44:07;;;;;;;2.23;0.90;;;17.00;99.90;;;;;;5072825;28;20241;-69
2023/05/04 07:46:35;;;;;;;5.77;0.97;;;16.80;99.90;;;;;;5072537;28;20188;-68
2023/05/04 07:49:03;;;;;;;4.23;1.00;;;16.70;99.90;;;;;;5073002;28;20184;-70
2023/05/04 07:51:31;;;;;;;3.77;1.10;;;16.50;99.90;;;;;;5073137;28;20259;-69
2023/05/04 07:53:59;;;;;;;4.93;0.90;;;16.40;99.90;;;;;;5069991;28;20180;-68
2023/05/04 07:56:26;;;;;;;2.77;1.03;;;16.40;99.90;;;;;;5072776;28;20726;-68
2023/05/04 07:58:54;;;;;;;3.63;0.83;;;16.30;99.90;;;;;;5073604;28;20203;-67
2023/05/04 08:01:23;;;;;;;2.83;0.90;;;16.20;99.90;;;;;;5073943;28;20633;-68
2023/05/04 08:03:51;;;;;;;2.43;1.13;;;16.10;99.90;;;;;;5076021;28;20218;-69
2023/05/04 08:06:19;;;;;;;3.90;1.33;;;16.00;99.90;;;;;;5073431;28;20176;-68
2023/05/04 08:08:48;;;;;;;4.13;1.00;;;15.90;99.90;;;;;;5074358;28;20283;-68
2023/05/04 08:11:16;;;;;;;2.63;1.00;;;15.80;99.90;;;;;;5073968;28;20230;-68
2023/05/04 08:13:49;;;;;;;4.63;1.10;;;15.70;99.90;;;;;;5073983;28;20529;-69
2023/05/04 08:16:16;;;;;;;6.00;1.20;;;15.70;99.90;;;;;;5071910;28;20255;-67
2023/05/04 08:18:44;;;;;;;5.13;1.83;;;15.60;99.90;;;;;;5073977;28;20172;-68
2023/05/04 08:21:13;;;;;;;4.80;1.30;;;15.50;99.90;;;;;;5070986;28;20246;-68
2023/05/04 08:23:41;;;;;;;3.73;1.40;;;15.50;99.90;;;;;;5073889;28;20267;-68
2023/05/04 08:26:09;;;;;;;4.37;1.60;;;15.40;99.90;;;;;;5073635;28;20644;-67
2023/05/04 08:28:39;;;;;;;3.60;1.30;;;15.30;99.90;;;;;;5073669;28;20202;-68
2023/05/04 08:31:07;;;;;;;5.07;1.50;;;15.30;99.90;;;;;;5073624;28;20183;-68
2023/05/04 08:33:35;;;;;;;4.73;1.50;;;15.20;99.90;;;;;;5070013;28;20187;-67
2023/05/04 08:36:04;;;;;;;3.10;1.50;;;15.10;99.90;;;;;;5073540;28;20723;-69
2023/05/04 08:38:32;;;;;;;5.60;1.43;;;15.10;99.90;;;;;;5072530;28;20172;-68
2023/05/04 08:41:09;;;;;;;6.53;1.60;;;15.10;99.90;;;;;;5073435;28;20219;-68
2023/05/04 08:43:37;;;;;;;6.30;1.90;;;15.00;99.90;;;;;;5074569;28;20174;-68
2023/05/04 08:46:06;;;;;;;4.47;2.30;;;15.00;99.90;;;;;;5073358;28;20180;-70
2023/05/04 08:48:34;;;;;;;2.57;1.37;;;14.90;99.90;;;;;;5073640;28;20171;-68
2023/05/04 08:51:06;;;;;;;3.93;1.50;;;14.80;99.90;;;;;;5073809;28;20246;-68
2023/05/04 08:53:37;;;;;;;4.73;1.57;;;14.80;99.90;;;;;;5073836;28;20595;-68
2023/05/04 08:56:08;;;;;;;4.77;1.40;;;14.70;99.90;;;;;;5074249;28;20200;-69
2023/05/04 08:58:48;;;;;;;3.30;1.70;;;14.70;99.90;;;;;;5073770;28;20175;-68
2023/05/04 09:01:17;;;;;;;3.17;1.50;;;14.70;99.90;;;;;;5073623;28;20568;-70
2023/05/04 09:03:47;;;;;;;5.30;2.10;;;14.60;99.90;;;;;;5072195;28;20175;-69
2023/05/04 09:06:15;;;;;;;5.00;1.70;;;14.60;99.90;;;;;;5073588;28;20651;-69
2023/05/04 09:08:43;;;;;;;6.23;1.83;;;14.60;99.90;;;;;;5073473;28;20175;-69
2023/05/04 09:11:11;;;;;;;3.73;1.93;;;14.50;99.90;;;;;;5072261;28;20608;-69
2023/05/04 09:13:41;;;;;;;6.00;1.80;;;14.50;99.90;;;;;;5073422;28;20168;-69
2023/05/04 09:16:09;;;;;;;5.77;1.80;;;14.40;99.90;;;;;;5073552;28;20171;-69
2023/05/04 09:18:43;;;;;;;8.07;2.07;;;14.30;99.90;;;;;;5073249;28;20180;-70
2023/05/04 09:21:11;;;;;;;5.23;1.77;;;14.30;99.90;;;;;;5073118;28;20603;-69
2023/05/04 09:23:52;;;;;;;4.33;2.03;;;14.20;99.90;;;;;;5073422;28;20215;-69
2023/05/04 09:26:33;;;;;;;8.93;2.57;;;14.20;99.90;;;;;;5073363;28;20236;-69
2023/05/04 09:29:15;;;;;;;9.50;2.17;;;14.20;99.90;;;;;;5073119;28;20171;-67
2023/05/04 09:31:47;;;;;;;4.67;2.30;;;14.10;99.90;;;;;;5073119;28;20628;-68
2023/05/04 09:34:14;;;;;;;6.93;2.57;;;14.10;99.90;;;;;;5073188;28;20213;-68
2023/05/04 09:36:42;;;;;;;9.43;2.67;;;14.00;99.90;;;;;;5072839;28;20604;-69
2023/05/04 09:39:15;;;;;;;10.00;2.47;;;13.90;99.90;;;;;;5072941;28;20183;-68
2023/05/04 09:41:43;;;;;;;12.47;2.83;;;13.90;99.90;;;;;;5072899;28;20225;-69
2023/05/04 09:44:24;;;;;;;5.50;2.40;;;13.80;99.90;;;;;;5073069;28;20182;-69
2023/05/04 09:46:55;;;;;;;4.27;2.30;;;13.80;99.90;;;;;;5073322;28;20175;-70
2023/05/04 09:49:37;;;;;;;7.23;2.60;;;13.80;99.90;;;;;;5073004;28;20176;-69
2023/05/04 09:52:06;;;;;;;9.67;2.70;;;13.80;99.90;;;;;;5072847;28;20654;-68
2023/05/04 09:54:37;;;;;;;4.13;2.37;;;13.80;99.90;;;;;;5073002;28;20181;-68
2023/05/04 09:57:05;;;;;;;3.87;2.23;;;13.70;99.90;;;;;;5072333;28;20195;-68
2023/05/04 09:59:33;;;;;;;6.53;2.50;;;13.70;99.90;;;;;;5072484;28;20265;-69
2023/05/04 10:02:01;;;;;;;6.40;2.60;;;13.70;99.90;;;;;;5072708;28;20233;-68
2023/05/04 10:04:31;;;;;;;9.53;2.37;;;13.70;99.90;;;;;;5072721;28;20648;-69
2023/05/04 10:06:59;;;;;;;8.80;2.57;;;13.60;99.90;;;;;;5072990;28;20180;-68
2023/05/04 10:09:31;;;;;;;5.30;2.53;;;13.60;99.90;;;;;;5072655;28;20209;-67
2023/05/04 10:12:05;;;;;;;7.30;2.83;;;13.60;99.90;;;;;;5072770;28;20168;-68
2023/05/04 10:14:36;;;;;;;5.47;2.50;;;13.60;99.90;;;;;;5072738;28;20631;-68
2023/05/04 10:17:07;;;;;;;7.17;2.73;;;13.60;99.90;;;;;;5072729;28;20225;-69
2023/05/04 10:19:53;;;;;;;7.07;2.97;;;13.50;99.90;;;;;;5072683;28;20528;-68
2023/05/04 10:22:43;;;;;;;7.83;3.27;;;13.50;99.90;;;;;;5072928;28;20285;-69
2023/05/04 10:25:58;;;;;;;12.17;3.47;;;13.50;99.90;;;;;;5073027;28;20245;-68
2023/05/04 10:28:42;;;;;;;8.07;3.00;;;13.30;99.90;;;;;;5055828;28;20731;-68
2023/05/04 10:31:10;;;;;;;4.53;2.80;;;13.30;99.90;;;;;;5072420;28;20182;-68
2023/05/04 10:33:42;;;;;;;5.60;2.40;;;13.30;99.90;;;;;;5072601;28;20179;-69
2023/05/04 10:36:10;;;;;;;9.40;2.47;;;13.20;99.90;;;;;;5072567;28;20228;-68
2023/05/04 10:38:40;;;;;;;7.63;2.50;;;13.20;99.90;;;;;;5071712;28;20175;-68
2023/05/04 10:41:18;;;;;;;8.00;3.00;;;13.20;99.90;;;;;;5071636;28;20215;-67
2023/05/04 10:43:52;;;;;;;5.10;2.53;;;13.10;99.90;;;;;;5071943;28;20167;-68
2023/05/04 10:46:23;;;;;;;7.17;3.10;;;13.10;99.90;;;;;;5072042;28;20181;-68
2023/05/04 10:48:52;;;;;;;9.13;2.70;;;13.10;99.90;;;;;;5072103;28;20216;-67
2023/05/04 10:51:23;;;;;;;7.63;2.90;;;13.10;99.90;;;;;;5070511;28;20232;-68
2023/05/04 10:53:52;;;;;;;7.00;2.27;;;13.00;99.90;;;;;;5071674;28;20265;-68
2023/05/04 10:56:24;;;;;;;12.43;2.63;;;13.00;99.90;;;;;;5072047;28;20172;-68
2023/05/04 10:58:52;;;;;;;7.53;2.40;;;12.90;99.90;;;;;;5071843;28;20239;-68
2023/05/04 11:01:21;;;;;;;6.77;2.20;;;12.90;99.90;;;;;;5071745;28;20211;-68
2023/05/04 11:03:51;;;;;;;5.87;2.83;;;12.90;99.90;;;;;;5071804;28;20688;-69
2023/05/04 11:06:23;;;;;;;9.47;2.53;;;12.80;99.90;;;;;;5071654;28;20194;-69
2023/05/04 11:09:02;;;;;;;5.73;2.70;;;12.80;99.90;;;;;;5072244;28;20193;-69
2023/05/04 11:11:35;;;;;;;8.40;2.60;;;12.80;99.90;;;;;;5075007;28;20186;-68
2023/05/04 11:14:03;;;;;;;8.23;2.70;;;12.70;99.90;;;;;;5075233;28;20176;-68
2023/05/04 11:16:31;;;;;;;7.67;2.87;;;12.70;99.90;;;;;;5075041;28;20192;-69
2023/05/04 11:19:11;;;;;;;5.20;2.40;;;12.70;99.90;;;;;;5074883;28;20353;-67
2023/05/04 11:21:39;;;;;;;5.77;2.97;;;12.60;99.90;;;;;;5074160;28;20265;-67
2023/05/04 11:24:07;;;;;;;4.83;2.57;;;12.60;99.90;;;;;;5073693;28;20225;-67
2023/05/04 11:26:47;;;;;;;5.27;2.47;;;12.60;99.90;;;;;;5073249;28;20560;-68
2023/05/04 11:29:15;;;;;;;3.87;2.30;;;12.60;99.90;;;;;;5071605;28;20262;-69
2023/05/04 11:31:52;;;;;;;6.67;2.43;;;12.60;99.90;;;;;;5074197;28;20183;-69
2023/05/04 11:34:20;;;;;;;4.43;2.47;;;12.60;99.90;;;;;;5074232;28;20181;-69
2023/05/04 11:36:48;;;;;;;7.10;2.70;;;12.50;99.90;;;;;;5074010;28;20186;-69
2023/05/04 11:39:16;;;;;;;12.80;3.60;;;12.50;99.90;;;;;;5074508;28;20254;-69
2023/05/04 11:41:45;;;;;;;5.73;2.83;;;12.50;99.90;;;;;;5074149;28;20205;-69
2023/05/04 11:44:13;;;;;;;7.13;3.20;;;12.40;99.90;;;;;;5074192;28;20180;-69
2023/05/04 11:46:41;;;;;;;7.33;3.03;;;12.50;99.90;;;;;;5073513;28;20180;-69
2023/05/04 11:49:08;;;;;;;6.53;2.87;;;12.40;99.90;;;;;;5073184;28;20227;-68
2023/05/04 11:51:36;;;;;;;8.03;3.00;;;12.40;99.90;;;;;;5074027;28;20617;-69
2023/05/04 11:54:06;;;;;;;5.40;2.60;;;12.40;99.90;;;;;;5074165;28;20197;-69
2023/05/04 11:56:42;;;;;;;9.17;2.97;;;12.30;99.90;;;;;;5073204;28;20194;-68
2023/05/04 11:59:10;;;;;;;9.03;2.83;;;12.30;99.90;;;;;;5065653;28;20194;-68
2023/05/04 12:01:38;;;;;;;8.33;3.33;;;12.30;99.90;;;;;;5073376;28;20219;-68
2023/05/04 12:04:06;;;;;;;8.27;2.97;;;12.20;99.90;;;;;;5074228;28;20185;-69
2023/05/04 12:06:35;;;;;;;5.97;2.93;;;12.20;99.90;;;;;;5073182;28;20272;-68
2023/05/04 12:09:05;;;;;;;4.67;2.73;;;12.20;99.90;;;;;;5072236;28;20186;-69
2023/05/04 12:11:37;;;;;;;5.57;2.63;;;12.10;99.90;;;;;;5073500;28;20240;-68
2023/05/04 12:14:09;;;;;;;7.60;2.60;;;12.00;99.90;;;;;;5074078;28;20179;-69
2023/05/04 12:16:37;;;;;;;8.97;3.03;;;12.00;99.90;;;;;;5073998;28;20660;-68
2023/05/04 12:19:11;;;;;;;8.20;2.77;;;12.00;99.90;;;;;;5073533;28;20571;-68
2023/05/04 12:21:52;;;;;;;6.63;2.70;;;11.90;99.90;;;;;;5072205;28;20230;-68
2023/05/04 12:24:24;;;;;;;8.37;3.63;;;11.90;99.90;;;;;;5073185;28;20195;-68
2023/05/04 12:26:54;;;;;;;6.33;3.43;;;11.90;99.90;;;;;;5074070;28;20186;-69
2023/05/04 12:29:22;;;;;;;6.27;2.70;;;11.90;99.90;;;;;;5073373;28;20193;-69
2023/05/04 12:31:50;;;;;;;7.03;3.13;;;11.90;99.90;;;;;;5073331;28;20187;-68
2023/05/04 12:34:20;;;;;;;7.97;2.67;;;11.90;99.90;;;;;;5072900;28;20212;-69
2023/05/04 12:36:50;;;;;;;7.60;2.70;;;11.80;99.90;;;;;;5072971;28;20269;-69
2023/05/04 12:39:18;;;;;;;6.87;2.47;;;11.70;99.90;;;;;;5073170;28;20187;-69
2023/05/04 12:41:46;;;;;;;6.80;2.70;;;11.70;99.90;;;;;;5062861;28;20699;-68
2023/05/04 12:44:15;;;;;;;6.13;2.57;;;11.70;99.90;;;;;;5073328;28;20614;-68
2023/05/04 12:46:43;;;;;;;5.00;2.33;;;11.60;99.90;;;;;;5073358;28;20187;-68
2023/05/04 12:49:13;;;;;;;4.73;2.87;;;11.60;99.90;;;;;;5073367;28;20174;-68
2023/05/04 12:51:40;;;;;;;5.83;2.57;;;11.60;99.90;;;;;;5073186;28;20664;-68
2023/05/04 12:54:08;;;;;;;8.40;2.60;;;11.60;99.90;;;;;;5071788;28;20211;-69
2023/05/04 12:56:38;;;;;;;4.97;2.50;;;11.60;99.90;;;;;;5072921;28;20191;-68
2023/05/04 12:59:06;;;;;;;6.90;3.40;;;11.60;99.90;;;;;;5072925;28;20252;-68
2023/05/04 13:01:34;;;;;;;7.40;2.50;;;11.60;99.90;;;;;;5061818;28;20211;-67
2023/05/04 13:04:02;;;;;;;4.67;2.40;;;11.60;99.90;;;;;;5072786;28;20189;-69
2023/05/04 13:06:30;;;;;;;7.20;2.57;;;11.60;99.90;;;;;;5071971;28;20669;-68
2023/05/04 13:09:00;;;;;;;6.80;2.20;;;11.60;99.90;;;;;;5072300;28;20232;-69
2023/05/04 13:11:28;;;;;;;4.50;2.30;;;11.60;99.90;;;;;;5072453;28;20186;-69